Time;durP1;ratioP1;P1;durP2;ratioP2;P2;SDS_P1;SDS_P2;PMS_P1;PMS_P2;Temp;Humidity;BMP_temperature;BMP_pressure;BME280_temperature;BME280_humidity;BME280_pressure;Samples;Min_cycle;Max_cycle;Signal;HPM_P1;HPM_P2
2022/08/12 00:43:35;;;;;;;2.25;0.80;;;;;;;24.11;35.82;101787.72;16131980;19;129039;-53
2022/08/12 00:48:58;;;;;;;2.95;0.70;;;;;;;24.11;35.74;101781.28;16135455;19;130390;-48
2022/08/12 00:54:20;;;;;;;3.78;0.80;;;;;;;24.10;35.60;101774.00;16141470;19;129986;-54
2022/08/12 00:59:47;;;;;;;1.05;0.80;;;;;;;24.10;35.75;101774.00;16139777;19;130081;-50
2022/08/12 01:16:35;;;;;;;3.00;0.60;;;;;;;24.08;35.80;101779.84;16144583;19;130584;-50
2022/08/12 01:22:25;;;;;;;1.10;0.80;;;;;;;24.09;35.70;101784.31;16147650;19;129074;-52
2022/08/12 01:27:49;;;;;;;4.50;0.88;;;;;;;24.08;35.95;101790.19;16143339;19;130326;-52
2022/08/12 01:33:17;;;;;;;1.42;0.95;;;;;;;24.10;35.40;101790.78;16143307;19;130446;-50
2022/08/12 01:38:42;;;;;;;1.67;0.80;;;;;;;24.07;35.75;101786.53;16137352;19;130431;-52
2022/08/12 01:44:05;;;;;;;;;;;;;;;24.05;35.49;101787.91;16144305;19;130938;-49
2022/08/12 01:49:39;;;;;;;2.03;0.70;;;;;;;24.08;35.71;101787.41;16143403;19;129183;-52
2022/08/12 01:55:01;;;;;;;1.02;0.60;;;;;;;24.05;36.00;101782.31;16137150;19;129559;-51
2022/08/12 02:00:34;;;;;;;0.77;0.73;;;;;;;24.04;36.17;101780.63;16139779;19;129854;-50
2022/08/12 02:11:59;;;;;;;0.60;0.52;;;;;;;24.04;35.77;101763.84;16141443;19;129967;-54
2022/08/12 02:18:02;;;;;;;0.60;0.57;;;;;;;24.03;35.83;101767.75;16137446;19;130519;-48
2022/08/12 02:23:26;;;;;;;0.80;0.63;;;;;;;24.04;35.80;101766.66;16129793;19;129674;-52
2022/08/12 02:28:51;;;;;;;1.05;0.70;;;;;;;24.01;35.78;101759.66;16131099;19;131585;-50
2022/08/12 02:34:15;;;;;;;2.28;0.73;;;;;;;24.02;36.07;101757.69;16130586;19;130974;-49
2022/08/12 02:39:43;;;;;;;1.83;0.97;;;;;;;24.01;35.54;101748.47;16125820;19;129359;-49
2022/08/12 02:45:07;;;;;;;3.22;0.60;;;;;;;24.01;35.58;101753.19;16129808;19;130482;-50
2022/08/12 02:50:33;;;;;;;2.17;0.95;;;;;;;24.01;35.56;101747.59;16129512;19;131820;-50
2022/08/12 02:55:58;;;;;;;2.25;0.75;;;;;;;24.01;35.73;101753.19;16129233;19;130769;-52
2022/08/12 03:01:27;;;;;;;;;;;;;;;23.96;35.69;101742.81;16138856;19;129419;-51
2022/08/12 03:07:03;;;;;;;1.42;0.82;;;;;;;24.01;35.52;101744.81;16140102;19;129734;-48
2022/08/12 03:12:25;;;;;;;1.30;0.80;;;;;;;23.97;35.20;101736.97;16136245;19;131488;-47
2022/08/12 03:18:02;;;;;;;0.70;0.70;;;;;;;23.97;35.97;101739.78;16133075;19;130272;-50
2022/08/12 03:23:45;;;;;;;1.23;0.70;;;;;;;23.97;35.57;101736.97;16135630;19;130625;-50
2022/08/12 03:29:07;;;;;;;0.95;0.70;;;;;;;23.96;35.66;101737.22;16135077;19;130722;-51
2022/08/12 03:34:34;;;;;;;1.65;0.73;;;;;;;23.96;35.61;101745.59;16130972;19;129429;-52
2022/08/12 03:39:55;;;;;;;3.25;0.80;;;;;;;23.96;35.59;101745.59;16129651;19;129077;-58
2022/08/12 04:02:39;;;;;;;1.48;0.70;;;;;;;23.93;35.60;101749.78;16136152;19;129976;-58
2022/08/12 04:08:02;;;;;;;2.83;0.70;;;;;;;23.93;35.70;101734.97;16134188;19;129389;-55
2022/08/12 04:13:24;;;;;;;2.05;0.52;;;;;;;23.92;35.77;101747.25;16131784;19;129956;-53
2022/08/12 04:18:46;;;;;;;2.90;0.70;;;;;;;23.92;35.62;101741.69;16131028;19;128922;-59
2022/08/12 04:24:09;;;;;;;1.45;0.82;;;;;;;23.92;35.61;101747.25;16133219;19;129500;-53
2022/08/12 04:29:33;;;;;;;2.35;0.90;;;;;;;23.93;35.41;101751.75;16134946;19;129686;-56
2022/08/12 04:35:15;;;;;;;1.48;0.77;;;;;;;23.90;35.83;101741.91;16132356;19;129839;-54
2022/08/12 04:40:38;;;;;;;2.08;0.90;;;;;;;23.89;35.35;101751.41;16133287;19;129405;-57
2022/08/12 04:46:01;;;;;;;1.42;0.80;;;;;;;23.90;35.65;101746.69;16133823;19;130876;-53
2022/08/12 04:51:24;;;;;;;0.98;0.70;;;;;;;23.89;35.56;101745.81;16129077;19;129673;-49
2022/08/12 04:56:46;;;;;;;0.90;0.63;;;;;;;23.87;35.72;101753.66;16129660;19;129788;-52
2022/08/12 05:02:25;;;;;;;0.80;0.70;;;;;;;23.88;35.82;101744.13;16130798;19;131842;-49
2022/08/12 05:07:49;;;;;;;1.10;0.85;;;;;;;23.88;35.64;101749.72;16129565;19;129535;-53
2022/08/12 05:13:18;;;;;;;2.83;1.02;;;;;;;23.87;35.78;101766.75;16127776;19;129884;-50
2022/08/12 05:18:39;;;;;;;1.63;0.90;;;;;;;23.86;35.87;101757.53;16126340;19;130986;-47
2022/08/12 05:24:08;;;;;;;2.22;0.50;;;;;;;23.87;35.92;101759.22;16130801;19;129174;-51
2022/08/12 05:29:30;;;;;;;1.25;0.70;;;;;;;23.88;35.49;101762.84;16128789;19;130122;-50
2022/08/12 05:35:12;;;;;;;2.38;0.70;;;;;;;23.87;36.14;101769.53;16137121;19;129270;-49
2022/08/12 05:40:34;;;;;;;1.20;0.70;;;;;;;23.86;35.85;101768.72;16144971;19;129597;-50
2022/08/12 05:45:55;;;;;;;32.83;2.38;;;;;;;23.86;35.94;101763.13;16146832;19;129572;-49
2022/08/12 05:51:17;;;;;;;6.28;2.00;;;;;;;23.84;36.10;101762.53;16144105;19;129580;-55
2022/08/12 05:56:42;;;;;;;13.20;3.38;;;;;;;23.80;35.49;101772.53;16143581;19;129407;-53
2022/08/12 06:02:06;;;;;;;5.68;3.83;;;;;;;23.70;35.12;101764.88;16146371;19;130431;-52
2022/08/12 06:07:40;;;;;;;8.07;3.70;;;;;;;23.63;34.77;101773.44;16145721;19;129515;-52
2022/08/12 06:13:21;;;;;;;14.27;3.10;;;;;;;23.67;35.21;101773.81;16145673;19;130140;-52
2022/08/12 06:19:03;;;;;;;9.40;2.90;;;;;;;23.71;34.79;101776.91;16142379;19;129326;-50
2022/08/12 06:24:27;;;;;;;6.13;2.20;;;;;;;23.74;34.68;101776.41;16146004;19;130225;-50
2022/08/12 06:29:49;;;;;;;4.28;2.22;;;;;;;23.77;34.77;101775.84;16144067;19;129259;-53
2022/08/12 06:35:31;;;;;;;5.85;1.95;;;;;;;23.80;35.21;101778.13;16145324;19;129578;-51
2022/08/12 06:46:51;;;;;;;6.07;1.80;;;;;;;23.82;34.84;101779.56;16143174;19;129457;-52
2022/08/12 06:52:20;;;;;;;5.43;1.55;;;;;;;23.84;34.88;101779.31;16142778;19;129228;-54
2022/08/12 06:58:08;;;;;;;5.38;1.95;;;;;;;23.86;34.78;101768.72;16142707;19;129483;-52
2022/08/12 07:03:31;;;;;;;5.07;1.88;;;;;;;23.87;34.77;101781.59;16143977;19;131426;-53
2022/08/12 07:08:53;;;;;;;3.47;1.55;;;;;;;23.87;34.83;101781.59;16143976;19;129308;-52
2022/08/12 07:14:15;;;;;;;2.90;1.70;;;;;;;23.90;34.79;101786.63;16144979;19;129327;-51
2022/08/12 07:19:36;;;;;;;2.88;1.77;;;;;;;23.90;35.03;101778.25;16139008;19;128872;-51
2022/08/12 07:30:50;;;;;;;2.53;1.40;;;;;;;23.92;34.87;101780.81;16142397;19;129381;-52
2022/08/12 07:36:13;;;;;;;2.25;1.40;;;;;;;23.94;35.00;101781.34;16141996;19;129640;-53
2022/08/12 07:41:35;;;;;;;2.50;1.40;;;;;;;23.95;34.82;101772.72;16143252;19;128915;-52
2022/08/12 07:46:56;;;;;;;2.28;1.00;;;;;;;23.96;34.98;101780.00;16142455;19;129510;-54
2022/08/12 07:52:18;;;;;;;3.42;1.17;;;;;;;23.97;34.99;101775.25;16140351;19;128893;-54
2022/08/12 07:57:59;;;;;;;4.80;1.30;;;;;;;24.00;35.06;101782.28;16140660;19;129500;-53
2022/08/12 08:03:21;;;;;;;6.13;1.40;;;;;;;23.99;35.11;101777.81;16139722;19;128930;-53
2022/08/12 08:08:43;;;;;;;2.65;1.20;;;;;;;23.99;35.06;101784.22;16141685;19;129746;-52
2022/08/12 08:14:07;;;;;;;2.72;1.23;;;;;;;23.99;35.06;101781.44;16140070;19;129240;-55
2022/08/12 08:19:30;;;;;;;1.50;1.15;;;;;;;24.02;35.14;101782.84;16137629;19;132045;-54
2022/08/12 08:24:56;;;;;;;1.30;0.90;;;;;;;24.01;35.24;101773.63;16139646;19;129378;-55
2022/08/12 08:30:18;;;;;;;1.58;0.85;;;;;;;24.02;34.98;101772.53;16135885;19;130278;-53
2022/08/12 08:35:44;;;;;;;2.72;0.90;;;;;;;24.04;35.13;101775.03;16133409;19;131244;-53
2022/08/12 08:47:10;;;;;;;3.35;1.02;;;;;;;24.04;35.31;101780.63;16135489;19;129559;-51
2022/08/12 08:52:32;;;;;;;2.22;0.93;;;;;;;24.06;35.54;101789.59;16134710;19;130455;-54
2022/08/12 08:58:07;;;;;;;4.45;1.00;;;;;;;24.08;35.44;101784.59;16134293;19;129659;-49
2022/08/12 09:03:29;;;;;;;1.67;1.02;;;;;;;24.09;35.35;101780.69;16136239;19;129346;-54
2022/08/12 09:09:13;;;;;;;2.40;1.00;;;;;;;24.10;35.66;101782.41;16136757;19;129118;-50
2022/08/12 09:14:35;;;;;;;2.53;0.98;;;;;;;24.10;35.52;101779.59;16150201;19;129872;-54
2022/08/12 09:19:57;;;;;;;3.22;1.02;;;;;;;24.10;35.46;101769.25;16137402;19;130624;-51
2022/08/12 09:25:27;;;;;;;4.03;1.00;;;;;;;24.13;35.41;101767.88;16139683;19;129581;-54
2022/08/12 09:30:57;;;;;;;1.35;0.85;;;;;;;24.14;35.42;101758.38;16148316;19;129536;-54
2022/08/12 09:36:21;;;;;;;1.00;0.65;;;;;;;24.16;35.59;101760.91;16149035;19;129149;-53
2022/08/12 09:48:07;;;;;;;1.10;0.50;;;;;;;24.17;35.56;101749.47;16149510;19;129148;-53
2022/08/12 09:53:29;;;;;;;2.40;0.90;;;;;;;24.17;35.44;101734.66;16147809;19;129664;-53
2022/08/12 09:59:00;;;;;;;1.35;0.75;;;;;;;24.17;35.46;101735.50;16145571;19;129340;-52
2022/08/12 10:04:24;;;;;;;1.10;0.80;;;;;;;24.19;35.81;101732.41;16141505;19;133721;-54
2022/08/12 10:09:45;;;;;;;1.85;0.70;;;;;;;24.20;35.70;101728.50;16146341;19;129067;-53
2022/08/12 10:15:19;;;;;;;4.05;0.82;;;;;;;24.20;35.27;101723.78;16146128;19;129554;-50
2022/08/12 10:21:07;;;;;;;4.05;1.00;;;;;;;24.22;34.92;101715.13;16140492;19;129962;-54
2022/08/12 10:32:18;;;;;;;1.08;0.88;;;;;;;24.23;35.00;101695.28;16147715;19;130126;-50
2022/08/12 10:38:01;;;;;;;1.15;1.00;;;;;;;24.23;34.93;101689.69;16145123;19;129860;-53
2022/08/12 10:43:43;;;;;;;1.60;1.05;;;;;;;24.24;35.23;101701.72;16141503;19;129106;-54
2022/08/12 10:49:19;;;;;;;2.13;1.02;;;;;;;24.27;34.76;101685.28;16141857;19;129559;-49
2022/08/12 10:55:00;;;;;;;1.20;0.90;;;;;;;24.31;34.73;101681.97;16139245;19;130536;-54
2022/08/12 11:00:27;;;;;;;5.00;1.17;;;;;;;24.33;34.51;101676.94;16134226;19;130138;-47
2022/08/12 11:05:57;;;;;;;7.32;1.20;;;;;;;24.35;34.18;101669.13;16139681;19;129849;-56
2022/08/12 11:11:41;;;;;;;8.77;1.27;;;;;;;24.42;34.02;101664.16;16141373;19;129736;-55
2022/08/12 11:17:23;;;;;;;5.85;1.60;;;;;;;24.45;33.65;101657.16;16136604;19;131791;-53
2022/08/12 11:23:04;;;;;;;2.30;1.20;;;;;;;24.46;34.00;101644.88;16141070;19;130481;-55
2022/08/12 11:28:46;;;;;;;3.67;1.10;;;;;;;24.46;33.69;101647.66;16141581;19;129526;-53
2022/08/12 11:34:25;;;;;;;6.18;1.00;;;;;;;24.47;34.05;101647.41;16140206;19;129389;-57
2022/08/12 11:40:07;;;;;;;4.55;1.17;;;;;;;24.48;33.46;101649.09;16136695;19;129668;-58
2022/08/12 11:45:49;;;;;;;1.83;1.27;;;;;;;24.49;33.64;101634.00;16134811;19;129752;-58
2022/08/12 11:51:13;;;;;;;4.80;1.20;;;;;;;24.50;33.50;101627.28;16140303;19;129022;-56
2022/08/12 11:56:35;;;;;;;3.10;1.10;;;;;;;24.49;33.69;101625.63;16142187;19;129378;-58
2022/08/12 12:02:00;;;;;;;1.70;1.00;;;;;;;24.51;33.46;101630.94;16136301;19;129169;-58
2022/08/12 12:07:26;;;;;;;2.33;1.10;;;;;;;24.52;33.18;101619.47;16138254;19;129223;-56
2022/08/12 12:13:07;;;;;;;2.60;1.17;;;;;;;24.52;33.30;101619.47;16139722;19;129664;-54
2022/08/12 12:18:44;;;;;;;2.47;1.08;;;;;;;24.53;33.46;101609.13;16136259;19;129753;-57
2022/08/12 12:24:05;;;;;;;1.85;1.08;;;;;;;24.55;32.92;101612.50;16137314;19;133299;-52
2022/08/12 12:29:29;;;;;;;1.08;0.90;;;;;;;24.54;33.32;101599.63;16137536;19;130702;-50
2022/08/12 12:35:11;;;;;;;2.25;1.30;;;;;;;24.55;33.03;101590.94;16137540;19;128888;-51
2022/08/12 12:40:53;;;;;;;2.40;1.00;;;;;;;24.56;33.05;101588.97;16130682;19;129410;-51
2022/08/12 12:46:16;;;;;;;3.17;0.88;;;;;;;24.57;33.46;101583.13;16145172;19;128929;-55
2022/08/12 12:51:39;;;;;;;1.65;0.90;;;;;;;24.57;33.13;101587.88;16150291;19;129333;-52
2022/08/12 12:57:21;;;;;;;1.27;1.00;;;;;;;24.58;33.17;101582.03;16151867;19;129223;-53
2022/08/12 13:03:03;;;;;;;1.73;0.80;;;;;;;24.60;33.07;101589.31;16151094;19;129701;-53
2022/08/12 13:08:30;;;;;;;1.40;0.77;;;;;;;24.57;32.90;101583.13;16148004;19;130231;-57
2022/08/12 13:13:56;;;;;;;1.45;1.15;;;;;;;24.64;32.59;101570.84;16149288;19;130277;-56
2022/08/12 13:19:35;;;;;;;4.90;1.30;;;;;;;24.67;32.83;101568.38;16146521;19;129790;-55
2022/08/12 13:25:08;;;;;;;;;;;;;;;24.69;32.53;101574.50;16152362;19;129462;-57
2022/08/12 13:30:31;;;;;;;5.03;1.60;;;;;;;24.76;32.86;101573.44;16150969;19;129519;-54
2022/08/12 13:35:59;;;;;;;5.78;1.35;;;;;;;24.78;32.44;101563.63;16151217;19;131329;-56
2022/08/12 13:41:34;;;;;;;3.47;1.10;;;;;;;24.79;32.27;101573.72;16145468;19;129455;-54
2022/08/12 13:46:57;;;;;;;10.55;1.88;;;;;;;24.83;32.44;101563.69;16147241;19;129511;-54
2022/08/12 13:52:22;;;;;;;2.78;1.40;;;;;;;24.83;32.38;101551.63;16143054;19;129390;-55
2022/08/12 13:57:44;;;;;;;3.40;1.40;;;;;;;24.83;32.20;101546.88;16141589;19;129457;-52
2022/08/12 14:03:11;;;;;;;4.90;1.30;;;;;;;24.85;32.17;101546.59;16147660;19;129605;-56
2022/08/12 14:08:33;;;;;;;2.15;1.27;;;;;;;24.87;32.29;101542.41;16145974;19;130091;-56
2022/08/12 14:13:58;;;;;;;9.60;1.67;;;;;;;24.90;32.00;101531.81;16144459;19;131612;-53
2022/08/12 14:19:26;;;;;;;8.20;1.40;;;;;;;24.88;31.98;101524.53;16141630;19;129490;-57
2022/08/12 14:24:57;;;;;;;2.75;1.35;;;;;;;24.88;31.92;101516.13;16146069;19;131514;-55
2022/08/12 14:30:22;;;;;;;4.00;1.10;;;;;;;24.91;31.82;101519.50;16143934;19;129636;-55
2022/08/12 14:35:51;;;;;;;4.30;1.45;;;;;;;24.92;32.04;101519.25;16138737;19;129493;-55
2022/08/12 14:41:19;;;;;;;2.40;1.20;;;;;;;24.94;31.88;101513.34;16134140;19;129453;-54
2022/08/12 14:46:43;;;;;;;13.52;2.25;;;;;;;24.94;31.78;101516.16;16142003;19;129517;-54
2022/08/12 14:52:08;;;;;;;13.40;1.65;;;;;;;24.94;31.96;101496.56;16137961;19;129951;-55
2022/08/12 14:57:55;;;;;;;13.50;1.83;;;;;;;24.95;31.96;101499.06;16140786;19;130851;-55
2022/08/12 15:03:24;;;;;;;10.40;1.60;;;;;;;24.96;32.03;101494.34;16141275;19;129814;-56
2022/08/12 15:09:07;;;;;;;11.07;1.65;;;;;;;25.00;31.85;101495.44;16140116;19;131931;-57
2022/08/12 15:14:32;;;;;;;7.78;2.10;;;;;;;25.03;31.88;101494.91;16138130;19;129974;-56
2022/08/12 15:19:58;;;;;;;7.70;1.70;;;;;;;25.05;32.04;101487.06;16136403;19;129416;-56
2022/08/12 15:25:41;;;;;;;7.18;2.28;;;;;;;25.05;32.38;101481.47;16144028;19;129531;-54
2022/08/12 15:31:18;;;;;;;12.95;2.10;;;;;;;25.06;31.91;101469.16;16145490;19;129165;-55
2022/08/12 15:36:48;;;;;;;9.48;1.55;;;;;;;25.04;32.20;101468.59;16143196;19;130040;-56
2022/08/12 15:42:16;;;;;;;12.70;2.03;;;;;;;25.03;32.19;101467.75;16136546;19;130341;-56
2022/08/12 15:47:37;;;;;;;25.65;2.60;;;;;;;25.05;32.16;101461.06;16139745;19;130092;-54
2022/08/12 15:53:14;;;;;;;17.25;2.78;;;;;;;25.05;32.31;101456.28;16135601;19;129002;-55
2022/08/12 15:58:40;;;;;;;21.30;2.15;;;;;;;25.06;32.62;101451.50;16138563;19;129819;-55
2022/08/12 16:04:02;;;;;;;13.43;2.05;;;;;;;25.06;32.36;101463.56;16136501;19;130345;-56
2022/08/12 16:09:26;;;;;;;11.70;1.83;;;;;;;25.07;32.44;101454.03;16138706;19;128878;-53
2022/08/12 16:15:09;;;;;;;22.73;2.72;;;;;;;25.08;32.07;101455.72;16137356;19;129471;-55
2022/08/12 16:20:33;;;;;;;11.27;1.80;;;;;;;25.08;32.01;101441.72;16131424;19;129183;-56
2022/08/12 16:25:55;;;;;;;18.02;2.20;;;;;;;25.09;32.66;101440.63;16134808;19;129867;-56
2022/08/12 16:31:26;;;;;;;15.50;2.35;;;;;;;25.09;32.46;101432.22;16133556;19;128957;-54
2022/08/12 16:36:50;;;;;;;22.27;2.92;;;;;;;25.10;32.11;101433.91;16134305;19;129449;-56
2022/08/12 16:42:14;;;;;;;17.40;2.95;;;;;;;25.13;32.69;101438.09;16129861;19;129238;-54
2022/08/12 16:47:44;;;;;;;11.98;2.70;;;;;;;25.15;32.87;101424.66;16134714;19;129506;-56
2022/08/12 16:53:21;;;;;;;15.68;2.95;;;;;;;25.15;32.55;101436.69;16131471;19;130397;-56
2022/08/12 16:58:52;;;;;;;7.00;2.53;;;;;;;25.15;32.68;101419.06;16133992;19;130394;-56
2022/08/12 17:04:16;;;;;;;5.68;2.08;;;;;;;25.16;32.50;101420.75;16135319;19;129680;-56
2022/08/12 17:09:50;;;;;;;6.93;2.67;;;;;;;25.17;33.18;101420.47;16126103;19;128941;-55
2022/08/12 17:15:13;;;;;;;14.13;2.17;;;;;;;25.16;33.14;101427.16;16133140;19;129570;-52
2022/08/12 17:20:57;;;;;;;11.25;2.10;;;;;;;25.16;32.75;101427.16;16128978;19;130382;-56
2022/08/12 17:26:23;;;;;;;6.65;1.85;;;;;;;25.16;33.31;101427.16;16133782;19;129512;-56
2022/08/12 17:31:53;;;;;;;4.57;2.38;;;;;;;25.16;32.96;101429.97;16139660;19;130979;-55
2022/08/12 17:37:22;;;;;;;18.48;2.53;;;;;;;25.19;33.61;101417.38;16141822;19;129629;-55
2022/08/12 17:42:45;;;;;;;8.57;1.98;;;;;;;25.24;33.55;101422.13;16146997;19;130993;-56
2022/08/12 17:48:10;;;;;;;12.65;1.90;;;;;;;25.27;33.57;101427.16;16146815;19;129254;-57
2022/08/12 17:53:41;;;;;;;12.15;3.00;;;;;;;25.28;33.66;101417.66;16144690;19;129704;-55
2022/08/12 17:59:24;;;;;;;20.33;2.78;;;;;;;25.29;33.33;101416.53;16146090;19;129598;-53
2022/08/12 18:05:05;;;;;;;32.05;2.70;;;;;;;25.29;33.57;101425.75;16146218;19;130015;-58
2022/08/12 18:16:16;;;;;;;26.67;2.30;;;;;;;25.26;33.45;101433.88;16146141;19;129603;-49
2022/08/12 18:21:45;;;;;;;20.52;2.50;;;;;;;25.29;33.35;101436.97;16140634;19;129023;-55
2022/08/12 18:27:23;;;;;;;20.83;2.47;;;;;;;25.30;33.17;101440.63;16142773;19;129090;-53
2022/08/12 18:33:03;;;;;;;25.35;2.80;;;;;;;25.28;33.33;101434.44;16141838;19;129380;-54
2022/08/12 18:38:26;;;;;;;18.02;1.70;;;;;;;25.22;33.25;101438.38;16144713;19;129758;-51
2022/08/12 18:44:08;;;;;;;7.63;1.60;;;;;;;25.17;33.48;101444.81;16138488;19;129371;-55
2022/08/12 18:49:30;;;;;;;21.70;1.90;;;;;;;25.12;33.44;101444.81;16146384;19;129971;-54
2022/08/12 18:55:02;;;;;;;10.82;1.63;;;;;;;25.08;33.54;101447.34;16141266;19;130264;-54
2022/08/12 19:00:29;;;;;;;14.18;1.50;;;;;;;25.05;33.49;101447.88;16143314;19;129164;-51
2022/08/12 19:05:59;;;;;;;7.25;1.10;;;;;;;25.03;33.84;101447.31;16143232;19;129390;-55
2022/08/12 19:17:06;;;;;;;7.47;1.17;;;;;;;24.96;33.70;101458.78;16145721;19;129748;-54
2022/08/12 19:22:33;;;;;;;8.00;1.10;;;;;;;24.94;33.66;101452.63;16137721;19;128953;-49
2022/08/12 19:27:56;;;;;;;8.02;1.05;;;;;;;24.94;33.85;101457.38;16145226;19;129566;-53
2022/08/12 19:33:22;;;;;;;4.10;0.90;;;;;;;24.91;33.53;101458.78;16144996;19;129916;-55
2022/08/12 19:38:47;;;;;;;5.18;1.02;;;;;;;24.90;33.92;101461.84;16145918;19;129645;-54
2022/08/12 19:44:17;;;;;;;2.55;0.73;;;;;;;24.88;33.55;101465.75;16138726;19;129423;-54
2022/08/12 19:49:51;;;;;;;5.75;1.25;;;;;;;24.87;33.48;101463.22;16142794;19;129089;-51
2022/08/12 19:55:16;;;;;;;2.22;0.95;;;;;;;24.86;33.77;101470.75;16137872;19;129522;-51
2022/08/12 20:00:42;;;;;;;1.52;0.70;;;;;;;24.87;33.69;101480.00;16141845;19;129200;-51
2022/08/12 20:06:14;;;;;;;2.17;0.70;;;;;;;24.85;33.79;101474.69;16142558;19;129055;-53
2022/08/12 20:11:44;;;;;;;3.10;0.80;;;;;;;24.84;33.39;101484.19;16141741;19;129264;-52
2022/08/12 20:17:26;;;;;;;2.08;0.75;;;;;;;24.83;33.58;101485.31;16138933;19;129451;-54
2022/08/12 20:23:08;;;;;;;30.13;1.77;;;;;;;24.80;33.63;101485.84;16134737;19;129384;-56
2022/08/12 20:28:30;;;;;;;10.70;1.35;;;;;;;24.79;33.73;101478.56;16139008;19;129003;-52
2022/08/12 20:33:52;;;;;;;8.13;1.48;;;;;;;24.81;33.47;101483.88;16139447;19;130183;-55
2022/08/12 20:39:17;;;;;;;8.27;1.30;;;;;;;24.81;33.66;101481.94;16138733;19;129489;-58
2022/08/12 20:45:01;;;;;;;6.43;1.20;;;;;;;24.81;33.59;101479.16;16138677;19;128980;-55
2022/08/12 20:50:23;;;;;;;5.43;1.50;;;;;;;24.81;33.32;101479.16;16134944;19;129494;-55
2022/08/12 20:55:49;;;;;;;13.20;1.40;;;;;;;24.82;33.58;101483.63;16132440;19;128808;-55
2022/08/12 21:01:20;;;;;;;6.78;1.25;;;;;;;24.81;33.53;101470.75;16134067;19;129036;-54
2022/08/12 21:06:59;;;;;;;6.10;1.38;;;;;;;24.80;33.60;101474.66;16140916;19;129492;-55
2022/08/12 21:12:30;;;;;;;5.40;1.05;;;;;;;24.80;33.50;101479.44;16150500;19;129028;-55
2022/08/12 21:18:01;;;;;;;4.88;1.00;;;;;;;24.80;33.81;101476.63;16150327;19;129355;-55
2022/08/12 21:23:36;;;;;;;3.22;1.00;;;;;;;24.78;33.78;101476.91;16143950;19;129611;-55
2022/08/12 21:29:09;;;;;;;5.55;0.80;;;;;;;24.78;33.54;101476.06;16148517;19;130007;-55
2022/08/12 21:34:30;;;;;;;1.90;1.00;;;;;;;24.77;33.66;101475.22;16149348;19;129456;-56
2022/08/12 21:39:53;;;;;;;3.88;0.90;;;;;;;24.76;33.75;101469.91;16147576;19;130208;-50
2022/08/12 21:45:17;;;;;;;1.77;0.80;;;;;;;24.73;33.62;101474.94;16147856;19;128965;-53
2022/08/12 21:50:58;;;;;;;2.55;0.90;;;;;;;24.73;33.30;101466.53;16147041;19;129310;-53
2022/08/12 21:56:22;;;;;;;3.08;0.70;;;;;;;24.73;33.29;101474.09;16141822;19;130172;-55
2022/08/12 22:01:55;;;;;;;1.75;0.80;;;;;;;24.71;33.95;101481.94;16141212;19;128890;-56
2022/08/12 22:07:16;;;;;;;4.05;0.90;;;;;;;24.73;33.92;101490.88;16146297;19;129547;-58
2022/08/12 22:12:39;;;;;;;6.15;1.05;;;;;;;24.76;34.27;101490.31;16146182;19;129731;-56
2022/08/12 22:18:06;;;;;;;2.83;1.05;;;;;;;24.78;34.12;101487.25;16147079;19;130199;-55
2022/08/12 22:23:35;;;;;;;3.63;1.00;;;;;;;24.80;34.72;101485.84;16140853;19;130458;-53
2022/08/12 22:40:57;;;;;;;3.47;1.10;;;;;;;24.88;34.61;101476.94;16143602;19;129287;-59
2022/08/12 22:51:47;;;;;;;6.95;1.60;;;;;;;24.90;34.98;101478.63;16143004;19;129197;-55
2022/08/12 22:57:26;;;;;;;5.10;1.10;;;;;;;24.88;35.01;101478.88;16144661;19;129479;-54
2022/08/12 23:03:08;;;;;;;3.72;1.08;;;;;;;24.85;35.00;101474.69;16141180;19;131088;-54
2022/08/12 23:08:51;;;;;;;3.38;0.90;;;;;;;24.83;34.85;101471.31;16143841;19;129356;-55
2022/08/12 23:14:13;;;;;;;3.85;0.90;;;;;;;24.82;34.76;101474.38;16144385;19;129463;-56
2022/08/12 23:19:35;;;;;;;1.77;0.77;;;;;;;24.80;34.83;101474.66;16142186;19;129310;-56
2022/08/12 23:25:07;;;;;;;3.33;0.70;;;;;;;24.78;34.97;101474.09;16136654;19;129143;-54
2022/08/12 23:30:41;;;;;;;1.23;0.73;;;;;;;24.79;34.85;101478.56;16141974;19;130748;-56
2022/08/12 23:36:03;;;;;;;2.67;0.88;;;;;;;24.78;34.87;101476.06;16142359;19;129469;-56
2022/08/12 23:41:27;;;;;;;3.40;0.80;;;;;;;24.77;34.74;101479.97;16137165;19;129746;-54
2022/08/12 23:47:10;;;;;;;2.92;0.88;;;;;;;24.75;34.92;101471.84;16141386;19;130117;-56
2022/08/12 23:52:32;;;;;;;4.53;0.90;;;;;;;24.75;35.00;101474.63;16140836;19;129370;-56
2022/08/12 23:57:56;;;;;;;1.85;0.93;;;;;;;24.75;34.83;101477.44;16141996;19;129362;-55
